createdAt,value
2018-06-16T00:03:28.763Z,98.80
2018-06-16T00:08:31.366Z,99.10
2018-06-16T00:13:33.995Z,98.50
2018-06-16T00:18:36.595Z,98.80
2018-06-16T00:23:39.293Z,98.70
2018-06-16T00:28:41.914Z,98.40
2018-06-16T00:33:45.262Z,98.10
2018-06-16T00:38:47.875Z,98.10
2018-06-16T00:43:50.491Z,98.00
2018-06-16T00:48:53.190Z,98.00
2018-06-16T00:53:55.955Z,98.10
2018-06-16T00:58:58.579Z,98.00
2018-06-16T01:04:01.195Z,97.40
2018-06-16T01:09:05.778Z,97.60
2018-06-16T01:14:08.468Z,97.80
2018-06-16T01:19:11.118Z,98.40
2018-06-16T01:29:16.270Z,98.30
2018-06-16T01:34:18.882Z,98.00
2018-06-16T01:39:21.501Z,98.30
2018-06-16T01:44:24.119Z,97.90
2018-06-16T01:49:26.810Z,97.50
2018-06-16T01:54:29.496Z,96.90
2018-06-16T01:59:32.171Z,96.90
2018-06-16T02:04:34.762Z,97.40
2018-06-16T02:09:37.367Z,97.70
2018-06-16T02:14:40.054Z,98.40
2018-06-16T02:19:42.815Z,98.50
2018-06-16T02:24:45.427Z,99.40
2018-06-16T02:29:48.063Z,99.70
2018-06-16T02:34:50.675Z,99.90
2018-06-16T02:39:53.283Z,99.90
2018-06-16T02:44:55.879Z,99.90
2018-06-16T02:49:58.475Z,99.90
2018-06-16T02:55:01.085Z,99.90
2018-06-16T03:00:03.831Z,99.90
2018-06-16T03:05:06.574Z,99.90
2018-06-16T03:10:09.783Z,99.90
2018-06-16T03:15:12.379Z,99.90
2018-06-16T03:20:15.008Z,99.90
2018-06-16T03:25:17.612Z,99.90
2018-06-16T03:30:20.618Z,99.90
2018-06-16T03:35:23.269Z,99.90
2018-06-16T03:40:25.897Z,99.90
2018-06-16T03:45:28.502Z,99.90
2018-06-16T03:50:31.230Z,99.90
2018-06-16T03:55:33.850Z,99.90
2018-06-16T04:00:36.469Z,99.90
2018-06-16T04:05:39.064Z,99.90
2018-06-16T04:10:41.655Z,99.90
2018-06-16T04:15:44.404Z,99.90
2018-06-16T04:20:47.009Z,99.90
2018-06-16T04:25:49.625Z,99.90
2018-06-16T04:30:52.265Z,99.90
2018-06-16T04:35:54.889Z,99.90
2018-06-16T04:40:57.515Z,99.90
2018-06-16T04:46:00.167Z,99.90
2018-06-16T04:51:02.779Z,99.90
2018-06-16T04:56:05.447Z,99.90
2018-06-16T05:01:08.078Z,99.90
2018-06-16T05:06:10.683Z,99.90
2018-06-16T05:11:13.305Z,99.90
2018-06-16T05:16:16.494Z,99.90
2018-06-16T05:21:19.090Z,99.90
2018-06-16T05:26:21.820Z,98.60
2018-06-16T05:31:24.536Z,98.30
2018-06-16T05:36:27.309Z,97.50
2018-06-16T05:41:29.974Z,97.00
2018-06-16T05:46:32.607Z,96.50
2018-06-16T05:51:35.244Z,95.30
2018-06-16T05:56:37.859Z,94.30
2018-06-16T06:01:40.568Z,93.50
2018-06-16T06:06:43.191Z,92.70
2018-06-16T06:11:45.807Z,91.70
2018-06-16T06:16:48.447Z,91.10
2018-06-16T06:21:51.155Z,89.60
2018-06-16T06:26:53.794Z,88.50
2018-06-16T06:31:56.715Z,88.20
2018-06-16T06:36:59.451Z,85.70
2018-06-16T06:42:02.079Z,83.70
2018-06-16T06:47:04.846Z,83.80
2018-06-16T06:52:07.575Z,82.00
2018-06-16T06:57:10.379Z,81.30
2018-06-16T07:02:14.335Z,79.60
2018-06-16T07:07:16.943Z,80.90
2018-06-16T07:12:19.614Z,77.60
2018-06-16T07:17:22.239Z,76.20
2018-06-16T07:22:24.937Z,74.60
2018-06-16T07:27:27.535Z,72.80
2018-06-16T07:32:30.147Z,72.30
2018-06-16T07:37:33.623Z,70.70
2018-06-16T07:42:36.463Z,69.50
2018-06-16T07:47:39.070Z,67.90
2018-06-16T07:52:41.749Z,67.40
2018-06-16T07:57:44.364Z,66.40
2018-06-16T08:02:47.042Z,64.30
2018-06-16T08:12:52.250Z,61.70
2018-06-16T08:17:54.870Z,59.10
2018-06-16T08:22:57.481Z,59.30
2018-06-16T08:28:00.088Z,58.60
2018-06-16T08:33:02.779Z,59.30
2018-06-16T08:38:06.079Z,55.80
2018-06-16T08:43:08.887Z,55.70
2018-06-16T08:48:11.723Z,55.10
2018-06-16T08:53:14.373Z,54.30
2018-06-16T08:58:16.997Z,52.40
2018-06-16T09:03:19.628Z,53.50
2018-06-16T09:08:22.241Z,52.00
2018-06-16T09:18:27.411Z,50.00
2018-06-16T09:23:31.599Z,50.80
2018-06-16T09:28:34.455Z,52.00
2018-06-16T09:33:42.128Z,51.10
2018-06-16T09:38:45.056Z,50.20
2018-06-16T09:43:47.802Z,48.20
2018-06-16T09:48:50.417Z,44.00
2018-06-16T09:53:53.350Z,43.70
2018-06-16T09:58:55.966Z,40.80
2018-06-16T10:09:01.412Z,37.80
2018-06-16T10:14:04.062Z,33.70
2018-06-16T10:19:06.732Z,34.10
2018-06-16T10:24:09.344Z,33.60
2018-06-16T10:29:12.027Z,32.00
2018-06-16T10:34:14.619Z,32.80
2018-06-16T10:39:17.292Z,29.40
2018-06-16T10:44:19.932Z,30.20
2018-06-16T10:49:22.612Z,29.80
2018-06-16T10:59:27.820Z,28.60
2018-06-16T11:04:30.896Z,26.70
2018-06-16T11:09:33.539Z,28.80
2018-06-16T11:14:36.179Z,27.50
2018-06-16T11:19:38.937Z,27.80
2018-06-16T11:24:41.617Z,27.70
2018-06-16T11:29:44.712Z,31.30
2018-06-16T11:34:47.318Z,31.30
2018-06-16T11:39:49.942Z,26.30
2018-06-16T11:44:52.554Z,26.80
2018-06-16T11:49:55.205Z,24.10
2018-06-16T11:54:57.810Z,22.00
2018-06-16T12:00:00.408Z,21.60
2018-06-16T12:05:03.135Z,21.20
2018-06-16T12:10:05.954Z,19.30
2018-06-16T12:15:08.684Z,19.70
2018-06-16T12:20:11.459Z,20.70
2018-06-16T12:25:14.112Z,19.50
2018-06-16T12:30:16.794Z,18.70
2018-06-16T12:35:19.440Z,19.90
2018-06-16T12:40:22.084Z,19.90
2018-06-16T12:45:24.764Z,18.60
2018-06-16T12:50:27.535Z,16.90
2018-06-16T12:55:30.162Z,16.20
2018-06-16T13:00:32.793Z,16.90
2018-06-16T13:05:35.572Z,16.80
2018-06-16T13:10:38.174Z,17.30
2018-06-16T13:15:40.810Z,18.90
2018-06-16T13:20:43.427Z,18.70
2018-06-16T13:25:46.042Z,17.70
2018-06-16T13:30:48.681Z,17.40
2018-06-16T13:35:51.347Z,17.80
2018-06-16T13:40:53.943Z,17.10
2018-06-16T13:45:56.540Z,17.70
2018-06-16T13:50:59.227Z,17.00
2018-06-16T13:56:01.857Z,14.90
2018-06-16T14:01:04.607Z,15.70
2018-06-16T14:06:07.232Z,16.50
2018-06-16T14:11:09.904Z,17.80
2018-06-16T14:16:12.571Z,18.90
2018-06-16T14:21:15.179Z,18.50
2018-06-16T14:26:17.789Z,20.20
2018-06-16T14:31:20.602Z,22.20
2018-06-16T14:36:23.464Z,22.20
2018-06-16T14:41:26.150Z,24.00
2018-06-16T14:46:29.852Z,23.50
2018-06-16T14:51:32.504Z,23.10
2018-06-16T14:56:35.139Z,25.10
2018-06-16T15:01:37.790Z,25.50
2018-06-16T15:06:40.515Z,24.40
2018-06-16T15:11:43.206Z,24.60
2018-06-16T15:16:45.815Z,24.50
2018-06-16T15:21:49.523Z,26.80
2018-06-16T15:26:52.697Z,27.60
2018-06-16T15:36:58.221Z,29.40
2018-06-16T15:42:00.852Z,31.70
2018-06-16T15:47:03.514Z,30.50
2018-06-16T15:52:06.194Z,31.10
2018-06-16T15:57:10.315Z,26.90
2018-06-16T16:07:15.488Z,27.10
2018-06-16T16:12:18.159Z,26.40
2018-06-16T16:17:20.902Z,26.00
2018-06-16T16:22:23.536Z,26.20
2018-06-16T16:27:26.263Z,22.90
2018-06-16T16:32:28.894Z,19.80
2018-06-16T16:37:31.655Z,20.80
2018-06-16T16:42:34.310Z,20.10
2018-06-16T16:47:36.930Z,19.60
2018-06-16T16:52:39.571Z,19.90
2018-06-16T16:57:42.190Z,20.30
2018-06-16T17:02:44.847Z,20.80
2018-06-16T17:07:47.490Z,21.40
2018-06-16T17:12:50.103Z,22.10
2018-06-16T17:17:52.715Z,23.10
2018-06-16T17:22:55.323Z,26.00
2018-06-16T17:27:58.020Z,26.30
2018-06-16T17:33:00.731Z,27.90
2018-06-16T17:38:03.382Z,31.00
2018-06-16T17:43:06.111Z,32.50
2018-06-16T17:48:08.747Z,32.90
2018-06-16T17:53:11.458Z,31.90
2018-06-16T17:58:14.117Z,30.60
2018-06-16T18:08:19.314Z,37.10
2018-06-16T18:13:21.958Z,36.30
2018-06-16T18:18:24.606Z,43.20
2018-06-16T18:23:27.306Z,46.90
2018-06-16T18:28:29.924Z,48.30
2018-06-16T18:33:32.541Z,50.30
2018-06-16T18:38:35.227Z,51.40
2018-06-16T18:43:37.848Z,54.20
2018-06-16T18:48:40.513Z,56.90
2018-06-16T18:53:43.156Z,59.00
2018-06-16T18:58:45.816Z,60.10
2018-06-16T19:03:48.475Z,62.10
2018-06-16T19:08:51.132Z,63.20
2018-06-16T19:13:53.759Z,65.80
2018-06-16T19:18:57.503Z,66.30
2018-06-16T19:24:00.248Z,67.10
2018-06-16T19:29:03.079Z,68.00
2018-06-16T19:34:05.725Z,68.40
2018-06-16T19:39:10.210Z,68.30
2018-06-16T19:44:12.951Z,69.20
2018-06-16T19:49:15.667Z,69.00
2018-06-16T19:54:18.275Z,69.60
2018-06-16T19:59:20.898Z,72.00
2018-06-16T20:04:23.514Z,72.80
2018-06-16T20:09:26.131Z,71.80
2018-06-16T20:14:28.752Z,72.70
2018-06-16T20:19:31.370Z,74.90
2018-06-16T20:24:33.979Z,74.80
2018-06-16T20:29:36.717Z,74.70
2018-06-16T20:34:39.271Z,76.20
2018-06-16T20:39:42.650Z,78.90
2018-06-16T20:44:45.641Z,79.30
2018-06-16T20:49:48.322Z,78.10
2018-06-16T20:54:51.261Z,78.80
2018-06-16T20:59:53.967Z,79.00
2018-06-16T21:04:56.618Z,79.50
2018-06-16T21:09:59.284Z,77.20
2018-06-16T21:15:01.999Z,75.80
2018-06-16T21:20:04.698Z,76.30
2018-06-16T21:25:07.339Z,75.80
2018-06-16T21:30:09.983Z,75.90
2018-06-16T21:35:12.610Z,75.70
2018-06-16T21:40:15.346Z,78.60
2018-06-16T21:45:18.714Z,79.50
2018-06-16T21:50:21.383Z,80.20
2018-06-16T21:55:23.955Z,81.00
2018-06-16T22:00:31.231Z,81.90
2018-06-16T22:05:34.033Z,81.90
2018-06-16T22:10:36.876Z,81.20
2018-06-16T22:15:39.551Z,80.80
2018-06-16T22:20:42.253Z,81.70
2018-06-16T22:25:44.924Z,82.20
2018-06-16T22:30:47.574Z,82.90
2018-06-16T22:35:50.559Z,83.80
2018-06-16T22:40:53.211Z,84.50
2018-06-16T22:45:55.863Z,84.00
2018-06-16T22:50:58.499Z,84.10
2018-06-16T22:56:01.115Z,84.70
2018-06-16T23:01:03.785Z,85.80
2018-06-16T23:06:06.434Z,86.50
2018-06-16T23:11:09.047Z,87.40
2018-06-16T23:16:11.703Z,87.90
2018-06-16T23:21:14.308Z,89.70
2018-06-16T23:26:17.003Z,89.20
2018-06-16T23:31:19.591Z,89.60
2018-06-16T23:36:22.227Z,90.10
2018-06-16T23:41:24.834Z,90.10
2018-06-16T23:46:27.452Z,90.30
2018-06-16T23:51:30.060Z,90.30
2018-06-16T23:56:32.655Z,90.30
